Terminal Aerodrome Forecast
Issued by NWS

Home | Current Version | Previous Version | Text Only | Print | Product List | Glossary Off
Versions: 1 2 3 4 5 6 7 8 9 10 11 12 13 14 15 16 17

000
FTUS43 KFGF 241120
TAFBJI
TAF
KBJI 241120Z 2412/2512 11017KT P6SM OVC045
     FM242200 13012KT 5SM -RA OVC060
     FM250100 16009KT P6SM OVC015
     FM250300 16005KT P6SM OVC010
     FM250400 VRB03KT P6SM OVC008
     FM251000 32008KT P6SM OVC003=

USA.gov is the U.S. government's official web portal to all federal, state and local government web resources and services.